PWSweather.com
Personal Weather Stations
Station Observations
KCAOCEAN4
Jeffries Ranch, Oceanside, CA 92057

Jeffries RanchOceanside, CA 92057

Lat: 33.2463208, Lon: -117.25335080000002

Elevation: 207

Station Type: Davis Vantage Vue

jeffriesranchweather.com

High Low Average
Temperature 63.1°F17.3°C 54.3°F12.4°C 58.3°F14.6°C
Dew Point 57.0°F13.9°C 51.8°F11.0°C 54.1°F12.3°C
Winds 6.9 mph 11.1 kmh Calm Calm 3.0 mph SW4.8 kmh SW
Wind Gusts 15.0 mph24.1 kmh -- 7.0 mph11.3 kmh
Humidity 96% 68% 87%
Pressure 29.93 in1013.5 mb 29.78 in1008.5 mb -
Precipitation 0.14 in3.6 mm - -
Hour Temp Dew Point Humidity Winds Wind Gusts Pressure Precip Precip Rate Daily Precip Total
12:08 AM 57.7°F14.3°C 55.2°F12.9°C 91% 4.9 mph W7.9 kmh W 11.0 mph17.7 kmh 29.78 in1008.5 mb 0.00 in0.0 mm 0.00 in0.0 mm 1.11 in28.2 mm
12:18 AM 57.4°F14.1°C 54.5°F12.5°C 90% 6.9 mph W11.1 kmh W 13.0 mph20.9 kmh 29.78 in1008.5 mb 0.03 in0.8 mm 0.18 in4.6 mm 1.16 in29.5 mm
12:28 AM 55.9°F13.3°C 54.0°F12.2°C 93% 6.0 mph W9.7 kmh W 13.0 mph20.9 kmh 29.78 in1008.5 mb 0.12 in3.0 mm 0.54 in13.7 mm 1.23 in31.2 mm
12:38 AM 55.6°F13.1°C 53.6°F12.0°C 93% 4.0 mph SW6.4 kmh SW 13.0 mph20.9 kmh 29.78 in1008.5 mb 0.12 in3.0 mm 0.00 in0.0 mm 1.23 in31.2 mm
12:48 AM 55.2°F12.9°C 53.6°F12.0°C 94% Calm Calm 2.9 mph4.7 kmh 29.79 in1008.8 mb 0.12 in3.0 mm 0.00 in0.0 mm 1.23 in31.2 mm
12:58 AM 55.0°F12.8°C 53.4°F11.9°C 94% Calm Calm 3.0 mph4.8 kmh 29.78 in1008.5 mb 0.12 in3.0 mm 0.00 in0.0 mm 1.23 in31.2 mm
01:08 AM 55.0°F12.8°C 53.4°F11.9°C 94% 0.9 mph SSE1.4 kmh SSE 2.9 mph4.7 kmh 29.78 in1008.5 mb 0.12 in3.0 mm 0.00 in0.0 mm 0.12 in3.0 mm
01:18 AM 55.2°F12.9°C 53.8°F12.1°C 95% 2.0 mph SE3.2 kmh SE 4.9 mph7.9 kmh 29.78 in1008.5 mb 0.09 in2.3 mm 0.00 in0.0 mm 0.12 in3.0 mm
01:28 AM 55.6°F13.1°C 54.1°F12.3°C 95% 2.9 mph SW4.7 kmh SW 11.0 mph17.7 kmh 29.78 in1008.5 mb 0.00 in0.0 mm 0.00 in0.0 mm 0.12 in3.0 mm
01:38 AM 55.9°F13.3°C 54.3°F12.4°C 94% 4.0 mph W6.4 kmh W 8.1 mph13.0 kmh 29.78 in1008.5 mb 0.00 in0.0 mm 0.00 in0.0 mm 0.12 in3.0 mm
01:48 AM 55.9°F13.3°C 54.3°F12.4°C 94% 2.0 mph SW3.2 kmh SW 6.9 mph11.1 kmh 29.78 in1008.5 mb 0.00 in0.0 mm 0.00 in0.0 mm 0.12 in3.0 mm
01:58 AM 56.1°F13.4°C 54.5°F12.5°C 94% 0.9 mph SSW1.4 kmh SSW 7.0 mph11.3 kmh 29.78 in1008.5 mb 0.00 in0.0 mm 0.00 in0.0 mm 0.12 in3.0 mm
02:08 AM 56.3°F13.5°C 54.3°F12.4°C 93% 2.0 mph S3.2 kmh S 6.9 mph11.1 kmh 29.78 in1008.5 mb 0.00 in0.0 mm 0.00 in0.0 mm 0.12 in3.0 mm
02:18 AM 56.7°F13.7°C 55.0°F12.8°C 94% 4.0 mph WNW6.4 kmh WNW 10.1 mph16.3 kmh 29.78 in1008.5 mb 0.06 in1.5 mm 0.36 in9.1 mm 0.06 in1.5 mm
02:28 AM 56.7°F13.7°C 55.0°F12.8°C 94% 2.9 mph SW4.7 kmh SW 6.9 mph11.1 kmh 29.78 in1008.5 mb 0.10 in2.5 mm 0.24 in6.1 mm 0.11 in2.8 mm
02:38 AM 56.7°F13.7°C 55.2°F12.9°C 95% 6.0 mph NW9.7 kmh NW 15.0 mph24.1 kmh 29.78 in1008.5 mb 0.11 in2.8 mm 0.06 in1.5 mm 0.11 in2.8 mm
02:48 AM 56.5°F13.6°C 55.0°F12.8°C 95% 2.9 mph WNW4.7 kmh WNW 6.9 mph11.1 kmh 29.78 in1008.5 mb 0.11 in2.8 mm 0.00 in0.0 mm 0.11 in2.8 mm
02:59 AM 56.5°F13.6°C 55.0°F12.8°C 95% 2.9 mph W4.7 kmh W 9.0 mph14.5 kmh 29.79 in1008.8 mb 0.11 in2.8 mm 0.00 in0.0 mm 0.11 in2.8 mm
03:09 AM 56.5°F13.6°C 55.0°F12.8°C 95% 2.9 mph W4.7 kmh W 8.1 mph13.0 kmh 29.79 in1008.8 mb 0.11 in2.8 mm 0.00 in0.0 mm 0.11 in2.8 mm
03:19 AM 56.1°F13.4°C 54.7°F12.6°C 95% 2.9 mph WNW4.7 kmh WNW 6.0 mph9.7 kmh 29.79 in1008.8 mb 0.05 in1.3 mm 0.00 in0.0 mm 0.11 in2.8 mm
03:29 AM 55.9°F13.3°C 54.5°F12.5°C 95% 0.9 mph WSW1.4 kmh WSW 4.9 mph7.9 kmh 29.79 in1008.8 mb 0.01 in0.3 mm 0.00 in0.0 mm 0.11 in2.8 mm
03:39 AM 55.8°F13.2°C 54.1°F12.3°C 94% Calm Calm 2.9 mph4.7 kmh 29.80 in1009.1 mb 0.00 in0.0 mm 0.00 in0.0 mm 0.11 in2.8 mm
03:49 AM 55.0°F12.8°C 53.4°F11.9°C 94% Calm Calm 2.0 mph3.2 kmh 29.80 in1009.1 mb 0.00 in0.0 mm 0.00 in0.0 mm 0.11 in2.8 mm
03:59 AM 55.0°F12.8°C 53.6°F12.0°C 95% Calm Calm 2.0 mph3.2 kmh 29.80 in1009.1 mb 0.00 in0.0 mm 0.00 in0.0 mm 0.11 in2.8 mm
04:09 AM 54.9°F12.7°C 53.4°F11.9°C 95% Calm Calm -- 29.81 in1009.5 mb 0.00 in0.0 mm 0.00 in0.0 mm 0.11 in2.8 mm
04:19 AM 54.5°F12.5°C 53.1°F11.7°C 95% Calm Calm -- 29.81 in1009.5 mb 0.00 in0.0 mm 0.00 in0.0 mm 0.11 in2.8 mm
04:29 AM 54.5°F12.5°C 53.4°F11.9°C 96% Calm Calm -- 29.81 in1009.5 mb 0.00 in0.0 mm 0.00 in0.0 mm 0.11 in2.8 mm
04:39 AM 54.7°F12.6°C 53.6°F12.0°C 96% 0.9 mph SE1.4 kmh SE 3.0 mph4.8 kmh 29.81 in1009.5 mb 0.03 in0.8 mm 0.18 in4.6 mm 0.14 in3.6 mm
04:49 AM 54.9°F12.7°C 53.8°F12.1°C 96% Calm Calm 2.9 mph4.7 kmh 29.81 in1009.5 mb 0.03 in0.8 mm 0.00 in0.0 mm 0.14 in3.6 mm
04:59 AM 54.9°F12.7°C 53.8°F12.1°C 96% 0.9 mph SE1.4 kmh SE 2.9 mph4.7 kmh 29.81 in1009.5 mb 0.03 in0.8 mm 0.00 in0.0 mm 0.14 in3.6 mm
05:09 AM 54.9°F12.7°C 53.8°F12.1°C 96% Calm Calm 0.9 mph1.4 kmh 29.80 in1009.1 mb 0.03 in0.8 mm 0.00 in0.0 mm 0.14 in3.6 mm
05:19 AM 54.9°F12.7°C 53.8°F12.1°C 96% Calm Calm 0.9 mph1.4 kmh 29.81 in1009.5 mb 0.03 in0.8 mm 0.00 in0.0 mm 0.14 in3.6 mm
05:29 AM 54.7°F12.6°C 53.6°F12.0°C 96% 0.9 mph ESE1.4 kmh ESE 2.0 mph3.2 kmh 29.81 in1009.5 mb 0.03 in0.8 mm 0.00 in0.0 mm 0.14 in3.6 mm
05:39 AM 54.5°F12.5°C 53.4°F11.9°C 96% 0.9 mph SE1.4 kmh SE 2.9 mph4.7 kmh 29.81 in1009.5 mb 0.00 in0.0 mm 0.00 in0.0 mm 0.14 in3.6 mm
05:49 AM 54.3°F12.4°C 53.2°F11.8°C 96% 0.9 mph ESE1.4 kmh ESE 2.0 mph3.2 kmh 29.82 in1009.8 mb 0.00 in0.0 mm 0.00 in0.0 mm 0.14 in3.6 mm
05:59 AM 54.3°F12.4°C 53.2°F11.8°C 96% 0.9 mph ESE1.4 kmh ESE 2.0 mph3.2 kmh 29.83 in1010.2 mb 0.00 in0.0 mm 0.00 in0.0 mm 0.14 in3.6 mm
06:09 AM 54.3°F12.4°C 53.2°F11.8°C 96% Calm Calm 2.0 mph3.2 kmh 29.83 in1010.2 mb 0.00 in0.0 mm 0.00 in0.0 mm 0.14 in3.6 mm
06:19 AM 54.5°F12.5°C 53.4°F11.9°C 96% Calm Calm -- 29.83 in1010.2 mb 0.00 in0.0 mm 0.00 in0.0 mm 0.14 in3.6 mm
06:29 AM 54.7°F12.6°C 53.6°F12.0°C 96% 0.9 mph SE1.4 kmh SE 4.0 mph6.4 kmh 29.83 in1010.2 mb 0.00 in0.0 mm 0.00 in0.0 mm 0.14 in3.6 mm
06:39 AM 54.9°F12.7°C 53.8°F12.1°C 96% 2.0 mph SE3.2 kmh SE 2.9 mph4.7 kmh 29.84 in1010.5 mb 0.00 in0.0 mm 0.00 in0.0 mm 0.14 in3.6 mm
06:49 AM 54.9°F12.7°C 53.8°F12.1°C 96% 2.0 mph SSE3.2 kmh SSE 4.0 mph6.4 kmh 29.85 in1010.8 mb 0.00 in0.0 mm 0.00 in0.0 mm 0.14 in3.6 mm
06:59 AM 54.9°F12.7°C 53.8°F12.1°C 96% 2.0 mph SSE3.2 kmh SSE 4.0 mph6.4 kmh 29.84 in1010.5 mb 0.00 in0.0 mm 0.00 in0.0 mm 0.14 in3.6 mm
07:09 AM 54.9°F12.7°C 53.8°F12.1°C 96% 0.9 mph SSE1.4 kmh SSE 2.9 mph4.7 kmh 29.85 in1010.8 mb 0.00 in0.0 mm 0.00 in0.0 mm 0.14 in3.6 mm
07:19 AM 55.0°F12.8°C 54.0°F12.2°C 96% 0.9 mph SSE1.4 kmh SSE 4.0 mph6.4 kmh 29.85 in1010.8 mb 0.00 in0.0 mm 0.00 in0.0 mm 0.14 in3.6 mm
07:29 AM 55.0°F12.8°C 54.0°F12.2°C 96% 2.0 mph S3.2 kmh S 2.9 mph4.7 kmh 29.85 in1010.8 mb 0.00 in0.0 mm 0.00 in0.0 mm 0.14 in3.6 mm
07:39 AM 55.0°F12.8°C 54.0°F12.2°C 96% 0.9 mph S1.4 kmh S 4.0 mph6.4 kmh 29.86 in1011.2 mb 0.00 in0.0 mm 0.00 in0.0 mm 0.14 in3.6 mm
07:49 AM 55.2°F12.9°C 54.1°F12.3°C 96% 0.9 mph SE1.4 kmh SE 4.9 mph7.9 kmh 29.86 in1011.2 mb 0.00 in0.0 mm 0.00 in0.0 mm 0.14 in3.6 mm
07:59 AM 55.2°F12.9°C 54.1°F12.3°C 96% 2.0 mph SE3.2 kmh SE 5.0 mph8.0 kmh 29.86 in1011.2 mb 0.00 in0.0 mm 0.00 in0.0 mm 0.14 in3.6 mm
08:09 AM 55.6°F13.1°C 54.5°F12.5°C 96% 2.0 mph S3.2 kmh S 4.9 mph7.9 kmh 29.87 in1011.5 mb 0.00 in0.0 mm 0.00 in0.0 mm 0.14 in3.6 mm
08:19 AM 55.8°F13.2°C 54.7°F12.6°C 96% 0.9 mph SE1.4 kmh SE 2.9 mph4.7 kmh 29.88 in1011.9 mb 0.00 in0.0 mm 0.00 in0.0 mm 0.14 in3.6 mm
08:29 AM 55.8°F13.2°C 54.7°F12.6°C 96% 2.0 mph SE3.2 kmh SE 4.0 mph6.4 kmh 29.88 in1011.9 mb 0.00 in0.0 mm 0.00 in0.0 mm 0.14 in3.6 mm
08:39 AM 55.8°F13.2°C 54.7°F12.6°C 96% 2.9 mph SE4.7 kmh SE 4.0 mph6.4 kmh 29.88 in1011.9 mb 0.00 in0.0 mm 0.00 in0.0 mm 0.14 in3.6 mm
08:49 AM 56.1°F13.4°C 55.0°F12.8°C 96% 2.0 mph SE3.2 kmh SE 4.0 mph6.4 kmh 29.89 in1012.2 mb 0.00 in0.0 mm 0.00 in0.0 mm 0.14 in3.6 mm
08:59 AM 56.3°F13.5°C 55.2°F12.9°C 96% 2.0 mph ESE3.2 kmh ESE 4.0 mph6.4 kmh 29.89 in1012.2 mb 0.00 in0.0 mm 0.00 in0.0 mm 0.14 in3.6 mm
09:09 AM 56.5°F13.6°C 55.0°F12.8°C 95% 2.0 mph SSE3.2 kmh SSE 5.0 mph8.0 kmh 29.90 in1012.5 mb 0.00 in0.0 mm 0.00 in0.0 mm 0.14 in3.6 mm
09:19 AM 56.7°F13.7°C 55.2°F12.9°C 95% 2.0 mph SE3.2 kmh SE 6.0 mph9.7 kmh 29.90 in1012.5 mb 0.00 in0.0 mm 0.00 in0.0 mm 0.14 in3.6 mm
09:29 AM 56.8°F13.8°C 55.4°F13.0°C 95% 2.0 mph ESE3.2 kmh ESE 4.0 mph6.4 kmh 29.91 in1012.9 mb 0.00 in0.0 mm 0.00 in0.0 mm 0.14 in3.6 mm
09:39 AM 57.4°F14.1°C 55.9°F13.3°C 95% 0.9 mph S1.4 kmh S 2.9 mph4.7 kmh 29.91 in1012.9 mb 0.00 in0.0 mm 0.00 in0.0 mm 0.14 in3.6 mm
09:49 AM 57.7°F14.3°C 56.3°F13.5°C 95% Calm Calm 2.9 mph4.7 kmh 29.92 in1013.2 mb 0.00 in0.0 mm 0.00 in0.0 mm 0.14 in3.6 mm
09:59 AM 58.1°F14.5°C 56.7°F13.7°C 95% 0.9 mph WSW1.4 kmh WSW 3.0 mph4.8 kmh 29.92 in1013.2 mb 0.00 in0.0 mm 0.00 in0.0 mm 0.14 in3.6 mm
10:09 AM 58.8°F14.9°C 57.0°F13.9°C 94% Calm Calm 2.0 mph3.2 kmh 29.93 in1013.5 mb 0.00 in0.0 mm 0.00 in0.0 mm 0.14 in3.6 mm
10:19 AM 59.2°F15.1°C 56.8°F13.8°C 92% 2.0 mph WSW3.2 kmh WSW 6.0 mph9.7 kmh 29.93 in1013.5 mb 0.00 in0.0 mm 0.00 in0.0 mm 0.14 in3.6 mm
10:29 AM 59.7°F15.4°C 56.5°F13.6°C 89% 2.0 mph W3.2 kmh W 4.9 mph7.9 kmh 29.93 in1013.5 mb 0.00 in0.0 mm 0.00 in0.0 mm 0.14 in3.6 mm
10:39 AM 60.3°F15.7°C 56.1°F13.4°C 86% 4.9 mph WNW7.9 kmh WNW 8.9 mph14.3 kmh 29.93 in1013.5 mb 0.00 in0.0 mm 0.00 in0.0 mm 0.14 in3.6 mm
10:49 AM 60.6°F15.9°C 55.8°F13.2°C 84% 2.9 mph WSW4.7 kmh WSW 6.0 mph9.7 kmh 29.93 in1013.5 mb 0.00 in0.0 mm 0.00 in0.0 mm 0.14 in3.6 mm
10:59 AM 60.6°F15.9°C 55.4°F13.0°C 83% 2.9 mph W4.7 kmh W 7.0 mph11.3 kmh 29.93 in1013.5 mb 0.00 in0.0 mm 0.00 in0.0 mm 0.14 in3.6 mm
11:09 AM 60.8°F16.0°C 55.9°F13.3°C 84% 2.9 mph W4.7 kmh W 4.9 mph7.9 kmh 29.93 in1013.5 mb 0.00 in0.0 mm 0.00 in0.0 mm 0.14 in3.6 mm
11:19 AM 61.0°F16.1°C 56.1°F13.4°C 84% 0.9 mph W1.4 kmh W 2.9 mph4.7 kmh 29.93 in1013.5 mb 0.00 in0.0 mm 0.00 in0.0 mm 0.14 in3.6 mm
11:29 AM 60.8°F16.0°C 55.6°F13.1°C 83% 2.9 mph WSW4.7 kmh WSW 7.0 mph11.3 kmh 29.93 in1013.5 mb 0.00 in0.0 mm 0.00 in0.0 mm 0.14 in3.6 mm
11:39 AM 61.2°F16.2°C 55.6°F13.1°C 82% 2.9 mph W4.7 kmh W 9.0 mph14.5 kmh 29.93 in1013.5 mb 0.00 in0.0 mm 0.00 in0.0 mm 0.14 in3.6 mm
11:49 AM 61.5°F16.4°C 54.9°F12.7°C 79% 4.9 mph WNW7.9 kmh WNW 11.0 mph17.7 kmh 29.93 in1013.5 mb 0.00 in0.0 mm 0.00 in0.0 mm 0.14 in3.6 mm
11:59 AM 62.4°F16.9°C 54.7°F12.6°C 76% 2.9 mph SSW4.7 kmh SSW 11.0 mph17.7 kmh 29.92 in1013.2 mb 0.00 in0.0 mm 0.00 in0.0 mm 0.14 in3.6 mm
12:09 PM 62.6°F17.0°C 54.5°F12.5°C 75% 6.0 mph W9.7 kmh W 11.0 mph17.7 kmh 29.92 in1013.2 mb 0.00 in0.0 mm 0.00 in0.0 mm 0.14 in3.6 mm
12:19 PM 63.1°F17.3°C 54.3°F12.4°C 73% 4.9 mph NW7.9 kmh NW 11.0 mph17.7 kmh 29.92 in1013.2 mb 0.00 in0.0 mm 0.00 in0.0 mm 0.14 in3.6 mm
12:29 PM 62.6°F17.0°C 54.5°F12.5°C 75% 6.0 mph NW9.7 kmh NW 14.1 mph22.7 kmh 29.92 in1013.2 mb 0.00 in0.0 mm 0.00 in0.0 mm 0.14 in3.6 mm
12:39 PM 63.1°F17.3°C 54.7°F12.6°C 74% 4.9 mph W7.9 kmh W 10.1 mph16.3 kmh 29.92 in1013.2 mb 0.00 in0.0 mm 0.00 in0.0 mm 0.14 in3.6 mm
12:49 PM 62.2°F16.8°C 53.8°F12.1°C 74% 6.9 mph WNW11.1 kmh WNW 15.0 mph24.1 kmh 29.91 in1012.9 mb 0.00 in0.0 mm 0.00 in0.0 mm 0.14 in3.6 mm
12:59 PM 62.8°F17.1°C 54.3°F12.4°C 74% 4.9 mph SW7.9 kmh SW 13.0 mph20.9 kmh 29.91 in1012.9 mb 0.00 in0.0 mm 0.00 in0.0 mm 0.14 in3.6 mm
01:09 PM 63.1°F17.3°C 54.0°F12.2°C 72% 6.9 mph W11.1 kmh W 13.0 mph20.9 kmh 29.91 in1012.9 mb 0.00 in0.0 mm 0.00 in0.0 mm 0.14 in3.6 mm
01:19 PM 62.8°F17.1°C 54.3°F12.4°C 74% 6.0 mph WNW9.7 kmh WNW 14.1 mph22.7 kmh 29.90 in1012.5 mb 0.00 in0.0 mm 0.00 in0.0 mm 0.14 in3.6 mm
01:29 PM 62.4°F16.9°C 54.0°F12.2°C 74% 6.0 mph WSW9.7 kmh WSW 14.1 mph22.7 kmh 29.91 in1012.9 mb 0.00 in0.0 mm 0.00 in0.0 mm 0.14 in3.6 mm
01:39 PM 62.1°F16.7°C 52.9°F11.6°C 72% 6.0 mph WNW9.7 kmh WNW 14.0 mph22.5 kmh 29.91 in1012.9 mb 0.00 in0.0 mm 0.00 in0.0 mm 0.14 in3.6 mm
01:49 PM 63.1°F17.3°C 53.2°F11.8°C 70% 6.9 mph WNW11.1 kmh WNW 13.0 mph20.9 kmh 29.91 in1012.9 mb 0.00 in0.0 mm 0.00 in0.0 mm 0.14 in3.6 mm
01:59 PM 62.2°F16.8°C 53.1°F11.7°C 72% 6.0 mph W9.7 kmh W 13.0 mph20.9 kmh 29.91 in1012.9 mb 0.00 in0.0 mm 0.00 in0.0 mm 0.14 in3.6 mm
02:09 PM 62.4°F16.9°C 53.2°F11.8°C 72% 4.9 mph WSW7.9 kmh WSW 10.1 mph16.3 kmh 29.91 in1012.9 mb 0.00 in0.0 mm 0.00 in0.0 mm 0.14 in3.6 mm
02:19 PM 62.2°F16.8°C 52.3°F11.3°C 70% 6.0 mph W9.7 kmh W 12.1 mph19.5 kmh 29.90 in1012.5 mb 0.00 in0.0 mm 0.00 in0.0 mm 0.14 in3.6 mm
02:29 PM 61.9°F16.6°C 52.3°F11.3°C 71% 6.0 mph WNW9.7 kmh WNW 12.1 mph19.5 kmh 29.90 in1012.5 mb 0.00 in0.0 mm 0.00 in0.0 mm 0.14 in3.6 mm
02:39 PM 61.5°F16.4°C 53.2°F11.8°C 74% 6.0 mph WNW9.7 kmh WNW 13.0 mph20.9 kmh 29.91 in1012.9 mb 0.00 in0.0 mm 0.00 in0.0 mm 0.14 in3.6 mm
02:49 PM 61.3°F16.3°C 53.1°F11.7°C 74% 6.0 mph WNW9.7 kmh WNW 12.1 mph19.5 kmh 29.91 in1012.9 mb 0.00 in0.0 mm 0.00 in0.0 mm 0.14 in3.6 mm
02:59 PM 61.7°F16.5°C 53.2°F11.8°C 74% 6.9 mph WNW11.1 kmh WNW 15.0 mph24.1 kmh 29.91 in1012.9 mb 0.00 in0.0 mm 0.00 in0.0 mm 0.14 in3.6 mm
03:09 PM 62.1°F16.7°C 53.2°F11.8°C 73% 6.9 mph WNW11.1 kmh WNW 12.1 mph19.5 kmh 29.92 in1013.2 mb 0.00 in0.0 mm 0.00 in0.0 mm 0.14 in3.6 mm
03:19 PM 63.0°F17.2°C 53.1°F11.7°C 70% 6.9 mph WNW11.1 kmh WNW 14.1 mph22.7 kmh 29.92 in1013.2 mb 0.00 in0.0 mm 0.00 in0.0 mm 0.14 in3.6 mm
03:29 PM 62.2°F16.8°C 52.7°F11.5°C 71% 4.9 mph WSW7.9 kmh WSW 13.0 mph20.9 kmh 29.91 in1012.9 mb 0.00 in0.0 mm 0.00 in0.0 mm 0.14 in3.6 mm
03:39 PM 62.6°F17.0°C 52.3°F11.3°C 69% 6.0 mph WSW9.7 kmh WSW 13.0 mph20.9 kmh 29.91 in1012.9 mb 0.00 in0.0 mm 0.00 in0.0 mm 0.14 in3.6 mm
03:49 PM 62.4°F16.9°C 52.5°F11.4°C 70% 6.9 mph W11.1 kmh W 12.1 mph19.5 kmh 29.91 in1012.9 mb 0.00 in0.0 mm 0.00 in0.0 mm 0.14 in3.6 mm
03:59 PM 62.4°F16.9°C 51.8°F11.0°C 68% 4.9 mph SW7.9 kmh SW 12.1 mph19.5 kmh 29.91 in1012.9 mb 0.00 in0.0 mm 0.00 in0.0 mm 0.14 in3.6 mm
04:09 PM 62.1°F16.7°C 52.2°F11.2°C 70% 6.9 mph WNW11.1 kmh WNW 14.1 mph22.7 kmh 29.92 in1013.2 mb 0.00 in0.0 mm 0.00 in0.0 mm 0.14 in3.6 mm
04:19 PM 61.3°F16.3°C 51.8°F11.0°C 71% 6.0 mph NW9.7 kmh NW 13.0 mph20.9 kmh 29.93 in1013.5 mb 0.00 in0.0 mm 0.00 in0.0 mm 0.14 in3.6 mm
04:29 PM 61.3°F16.3°C 51.8°F11.0°C 71% 4.0 mph WSW6.4 kmh WSW 10.1 mph16.3 kmh 29.92 in1013.2 mb 0.00 in0.0 mm 0.00 in0.0 mm 0.14 in3.6 mm
04:39 PM 61.5°F16.4°C 52.0°F11.1°C 71% 4.0 mph W6.4 kmh W 10.1 mph16.3 kmh 29.91 in1012.9 mb 0.00 in0.0 mm 0.00 in0.0 mm 0.14 in3.6 mm
04:49 PM 61.7°F16.5°C 52.2°F11.2°C 71% 2.9 mph W4.7 kmh W 6.9 mph11.1 kmh 29.91 in1012.9 mb 0.00 in0.0 mm 0.00 in0.0 mm 0.14 in3.6 mm
04:59 PM 61.3°F16.3°C 51.8°F11.0°C 71% 4.0 mph WNW6.4 kmh WNW 6.0 mph9.7 kmh 29.92 in1013.2 mb 0.00 in0.0 mm 0.00 in0.0 mm 0.14 in3.6 mm
05:09 PM 61.2°F16.2°C 52.0°F11.1°C 72% 2.0 mph WSW3.2 kmh WSW 7.0 mph11.3 kmh 29.92 in1013.2 mb 0.00 in0.0 mm 0.00 in0.0 mm 0.14 in3.6 mm
05:19 PM 60.6°F15.9°C 51.6°F10.9°C 72% 2.9 mph SW4.7 kmh SW 6.0 mph9.7 kmh 29.92 in1013.2 mb 0.00 in0.0 mm 0.00 in0.0 mm 0.14 in3.6 mm
05:29 PM 60.3°F15.7°C 51.6°F10.9°C 73% 2.0 mph NW3.2 kmh NW 6.0 mph9.7 kmh 29.93 in1013.5 mb 0.00 in0.0 mm 0.00 in0.0 mm 0.14 in3.6 mm
05:39 PM 59.7°F15.4°C 51.8°F11.0°C 75% Calm Calm 2.0 mph3.2 kmh 29.93 in1013.5 mb 0.00 in0.0 mm 0.00 in0.0 mm 0.14 in3.6 mm
05:49 PM 59.2°F15.1°C 51.6°F10.9°C 76% 0.9 mph SSW1.4 kmh SSW 2.0 mph3.2 kmh 29.93 in1013.5 mb 0.00 in0.0 mm 0.00 in0.0 mm 0.14 in3.6 mm
05:59 PM 58.6°F14.8°C 51.1°F10.6°C 76% 0.9 mph S1.4 kmh S 2.0 mph3.2 kmh 29.93 in1013.5 mb 0.00 in0.0 mm 0.00 in0.0 mm 0.14 in3.6 mm
06:09 PM 58.5°F14.7°C 51.3°F10.7°C 77% 0.9 mph S1.4 kmh S 2.9 mph4.7 kmh 29.93 in1013.5 mb 0.00 in0.0 mm 0.00 in0.0 mm 0.14 in3.6 mm
06:19 PM 57.7°F14.3°C 50.9°F10.5°C 78% 0.9 mph SSE1.4 kmh SSE 2.9 mph4.7 kmh 29.93 in1013.5 mb 0.00 in0.0 mm 0.00 in0.0 mm 0.14 in3.6 mm
06:29 PM 57.0°F13.9°C 50.9°F10.5°C 80% 0.9 mph SE1.4 kmh SE 2.0 mph3.2 kmh 29.93 in1013.5 mb 0.00 in0.0 mm 0.00 in0.0 mm 0.14 in3.6 mm
06:39 PM 56.5°F13.6°C 51.1°F10.6°C 82% 2.0 mph SE3.2 kmh SE 2.0 mph3.2 kmh 29.94 in1013.9 mb 0.00 in0.0 mm 0.00 in0.0 mm 0.14 in3.6 mm
06:49 PM 55.9°F13.3°C 50.9°F10.5°C 83% 0.9 mph SE1.4 kmh SE 2.0 mph3.2 kmh 29.94 in1013.9 mb 0.00 in0.0 mm 0.00 in0.0 mm 0.14 in3.6 mm
06:59 PM 55.8°F13.2°C 50.7°F10.4°C 83% 2.0 mph SE3.2 kmh SE 2.0 mph3.2 kmh 29.94 in1013.9 mb 0.00 in0.0 mm 0.00 in0.0 mm 0.14 in3.6 mm
07:09 PM 55.6°F13.1°C 50.9°F10.5°C 84% 2.0 mph SE3.2 kmh SE 2.0 mph3.2 kmh 29.95 in1014.2 mb 0.00 in0.0 mm 0.00 in0.0 mm 0.14 in3.6 mm
07:19 PM 55.0°F12.8°C 50.5°F10.3°C 85% 2.0 mph SE3.2 kmh SE 2.0 mph3.2 kmh 29.95 in1014.2 mb 0.00 in0.0 mm 0.00 in0.0 mm 0.14 in3.6 mm
07:29 PM 55.0°F12.8°C 50.5°F10.3°C 85% 2.0 mph SE3.2 kmh SE 3.0 mph4.8 kmh 29.95 in1014.2 mb 0.00 in0.0 mm 0.00 in0.0 mm 0.14 in3.6 mm
07:39 PM 54.9°F12.7°C 50.4°F10.2°C 85% 2.0 mph SE3.2 kmh SE 2.9 mph4.7 kmh 29.95 in1014.2 mb 0.00 in0.0 mm 0.00 in0.0 mm 0.14 in3.6 mm
07:49 PM 54.5°F12.5°C 50.4°F10.2°C 86% 0.9 mph SE1.4 kmh SE 3.0 mph4.8 kmh 29.95 in1014.2 mb 0.00 in0.0 mm 0.00 in0.0 mm 0.14 in3.6 mm
07:59 PM 54.5°F12.5°C 50.4°F10.2°C 86% 0.9 mph SE1.4 kmh SE 3.0 mph4.8 kmh 29.95 in1014.2 mb 0.00 in0.0 mm 0.00 in0.0 mm 0.14 in3.6 mm
08:09 PM 54.5°F12.5°C 50.4°F10.2°C 86% 0.9 mph SE1.4 kmh SE 2.0 mph3.2 kmh 29.95 in1014.2 mb 0.00 in0.0 mm 0.00 in0.0 mm 0.14 in3.6 mm
08:19 PM 54.3°F12.4°C 50.2°F10.1°C 86% 0.9 mph SE1.4 kmh SE 2.0 mph3.2 kmh 29.95 in1014.2 mb 0.00 in0.0 mm 0.00 in0.0 mm 0.14 in3.6 mm
08:29 PM 54.1°F12.3°C 50.0°F10.0°C 86% 0.9 mph SE1.4 kmh SE 2.0 mph3.2 kmh 29.95 in1014.2 mb 0.00 in0.0 mm 0.00 in0.0 mm 0.14 in3.6 mm
08:39 PM 54.0°F12.2°C 49.8°F9.9°C 86% 0.9 mph E1.4 kmh E 2.0 mph3.2 kmh 29.95 in1014.2 mb 0.00 in0.0 mm 0.00 in0.0 mm 0.14 in3.6 mm
08:49 PM 53.8°F12.1°C 50.0°F10.0°C 87% Calm Calm 0.9 mph1.4 kmh 29.95 in1014.2 mb 0.00 in0.0 mm 0.00 in0.0 mm 0.14 in3.6 mm
08:59 PM 53.4°F11.9°C 49.6°F9.8°C 87% Calm Calm 0.9 mph1.4 kmh 29.95 in1014.2 mb 0.00 in0.0 mm 0.00 in0.0 mm 0.14 in3.6 mm
09:09 PM 52.9°F11.6°C 49.1°F9.5°C 87% Calm Calm -- 29.95 in1014.2 mb 0.00 in0.0 mm 0.00 in0.0 mm 0.14 in3.6 mm
09:19 PM 52.5°F11.4°C 49.1°F9.5°C 88% Calm Calm -- 29.96 in1014.6 mb 0.00 in0.0 mm 0.00 in0.0 mm 0.14 in3.6 mm
09:29 PM 52.2°F11.2°C 48.7°F9.3°C 88% 0.9 mph E1.4 kmh E 3.0 mph4.8 kmh 29.96 in1014.6 mb 0.00 in0.0 mm 0.00 in0.0 mm 0.14 in3.6 mm
09:39 PM 52.0°F11.1°C 48.9°F9.4°C 89% 0.9 mph NE1.4 kmh NE 2.0 mph3.2 kmh 29.96 in1014.6 mb 0.00 in0.0 mm 0.00 in0.0 mm 0.14 in3.6 mm
09:49 PM 51.8°F11.0°C 48.9°F9.4°C 90% 0.9 mph ENE1.4 kmh ENE 2.0 mph3.2 kmh 29.96 in1014.6 mb 0.00 in0.0 mm 0.00 in0.0 mm 0.14 in3.6 mm
09:59 PM 51.6°F10.9°C 48.7°F9.3°C 90% 0.9 mph E1.4 kmh E 3.0 mph4.8 kmh 29.96 in1014.6 mb 0.00 in0.0 mm 0.00 in0.0 mm 0.14 in3.6 mm
10:09 PM 51.1°F10.6°C 48.2°F9.0°C 90% Calm Calm -- 29.96 in1014.6 mb 0.00 in0.0 mm 0.00 in0.0 mm 0.14 in3.6 mm
10:19 PM 51.1°F10.6°C 48.6°F9.2°C 91% Calm Calm 1.0 mph1.6 kmh 29.96 in1014.6 mb 0.00 in0.0 mm 0.00 in0.0 mm 0.14 in3.6 mm
10:29 PM 51.1°F10.6°C 48.6°F9.2°C 91% Calm Calm 2.0 mph3.2 kmh 29.96 in1014.6 mb 0.00 in0.0 mm 0.00 in0.0 mm 0.14 in3.6 mm
10:39 PM 51.1°F10.6°C 48.6°F9.2°C 91% 0.9 mph ENE1.4 kmh ENE 2.0 mph3.2 kmh 29.96 in1014.6 mb 0.00 in0.0 mm 0.00 in0.0 mm 0.14 in3.6 mm
10:49 PM 51.4°F10.8°C 48.9°F9.4°C 91% 0.9 mph ENE1.4 kmh ENE 5.0 mph8.0 kmh 29.97 in1014.9 mb 0.00 in0.0 mm 0.00 in0.0 mm 0.14 in3.6 mm
10:59 PM 51.4°F10.8°C 48.9°F9.4°C 91% 2.9 mph NE4.7 kmh NE 6.0 mph9.7 kmh 29.97 in1014.9 mb 0.00 in0.0 mm 0.00 in0.0 mm 0.14 in3.6 mm
11:09 PM 51.4°F10.8°C 48.9°F9.4°C 91% 0.9 mph SE1.4 kmh SE 2.0 mph3.2 kmh 29.96 in1014.6 mb 0.00 in0.0 mm 0.00 in0.0 mm 0.14 in3.6 mm
11:19 PM 51.1°F10.6°C 48.6°F9.2°C 91% Calm Calm 0.9 mph1.4 kmh 29.96 in1014.6 mb 0.00 in0.0 mm 0.00 in0.0 mm 0.14 in3.6 mm
11:29 PM 50.5°F10.3°C 48.0°F8.9°C 91% Calm Calm -- 29.96 in1014.6 mb 0.00 in0.0 mm 0.00 in0.0 mm 0.14 in3.6 mm
11:39 PM 50.4°F10.2°C 48.2°F9.0°C 92% 0.9 mph E1.4 kmh E 2.0 mph3.2 kmh 29.97 in1014.9 mb 0.00 in0.0 mm 0.00 in0.0 mm 0.14 in3.6 mm
11:49 PM 50.4°F10.2°C 48.2°F9.0°C 92% 2.0 mph ENE3.2 kmh ENE 2.9 mph4.7 kmh 29.97 in1014.9 mb 0.00 in0.0 mm 0.00 in0.0 mm 0.14 in3.6 mm
11:59 PM 50.2°F10.1°C 48.0°F8.9°C 92% 0.9 mph ENE1.4 kmh ENE 2.0 mph3.2 kmh 29.96 in1014.6 mb 0.00 in0.0 mm 0.00 in0.0 mm 0.14 in3.6 mm